createdAt,value
2022-09-26T00:00:13.704Z,6.40
2022-09-26T00:05:15.394Z,7.68
2022-09-26T00:10:16.933Z,9.88
2022-09-26T00:15:18.405Z,5.97
2022-09-26T00:20:19.887Z,9.90
2022-09-26T00:25:21.373Z,10.85
2022-09-26T00:30:22.912Z,6.13
2022-09-26T00:35:33.684Z,5.80
2022-09-26T00:40:35.564Z,5.28
2022-09-26T00:45:37.189Z,6.63
2022-09-26T00:50:41.717Z,10.15
2022-09-26T00:55:48.091Z,7.57
2022-09-26T01:00:51.379Z,6.88
2022-09-26T01:05:54.024Z,9.40
2022-09-26T01:10:56.796Z,9.55
2022-09-26T01:15:58.317Z,7.20
2022-09-26T01:21:07.234Z,4.00
2022-09-26T01:26:48.049Z,8.15
2022-09-26T01:32:22.512Z,8.00
2022-09-26T01:37:46.339Z,9.73
2022-09-26T01:43:09.525Z,6.20
2022-09-26T01:48:17.083Z,8.93
2022-09-26T01:58:39.454Z,5.63
2022-09-26T02:03:48.986Z,6.90
2022-09-26T02:09:23.160Z,6.72
2022-09-26T02:14:31.882Z,6.30
2022-09-26T02:19:41.668Z,9.95
2022-09-26T02:24:43.138Z,7.28
2022-09-26T02:29:44.815Z,7.25
2022-09-26T02:34:48.159Z,5.93
2022-09-26T02:39:51.983Z,7.30
2022-09-26T02:45:21.689Z,4.97
2022-09-26T02:50:41.762Z,5.32
2022-09-26T02:56:28.416Z,11.85
2022-09-26T03:01:48.380Z,5.10
2022-09-26T03:06:58.175Z,6.70
2022-09-26T03:12:02.566Z,5.65
2022-09-26T03:17:04.814Z,8.15
2022-09-26T03:22:06.382Z,7.38
2022-09-26T03:27:09.181Z,5.20
2022-09-26T03:32:10.712Z,7.53
2022-09-26T03:37:12.373Z,5.97
2022-09-26T03:42:14.592Z,8.38
2022-09-26T03:47:18.064Z,9.82
2022-09-26T03:52:19.553Z,8.23
2022-09-26T03:57:21.229Z,6.70
2022-09-26T04:02:22.827Z,5.63
2022-09-26T04:07:24.426Z,10.50
2022-09-26T04:12:25.903Z,8.55
2022-09-26T04:17:29.246Z,9.05
2022-09-26T04:22:30.730Z,7.07
2022-09-26T04:27:32.164Z,6.15
2022-09-26T04:32:33.643Z,8.77
2022-09-26T04:37:37.082Z,7.25
2022-09-26T04:42:38.950Z,6.65
2022-09-26T04:47:40.402Z,6.85
2022-09-26T04:52:41.901Z,8.25
2022-09-26T04:57:43.359Z,7.65
2022-09-26T05:02:48.605Z,5.53
2022-09-26T05:07:50.061Z,6.13
2022-09-26T05:12:51.603Z,4.40
2022-09-26T05:18:00.577Z,9.43
2022-09-26T05:23:02.492Z,3.20
2022-09-26T05:28:03.968Z,10.30
2022-09-26T05:33:05.402Z,5.10
2022-09-26T05:38:07.016Z,7.25
2022-09-26T05:43:08.497Z,7.07
2022-09-26T05:48:09.963Z,6.75
2022-09-26T05:53:11.633Z,3.90
2022-09-26T05:58:13.737Z,4.85
2022-09-26T06:03:15.799Z,8.20
2022-09-26T06:08:17.435Z,10.05
2022-09-26T06:13:21.304Z,6.85
2022-09-26T06:18:23.023Z,6.28
2022-09-26T06:23:24.554Z,7.90
2022-09-26T06:28:27.375Z,4.80
2022-09-26T06:33:33.227Z,7.20
2022-09-26T06:38:36.158Z,8.27
2022-09-26T06:43:37.759Z,6.30
2022-09-26T06:48:39.273Z,5.07
2022-09-26T06:53:42.213Z,6.97
2022-09-26T06:58:43.715Z,6.85
2022-09-26T07:03:46.109Z,6.50
2022-09-26T07:09:02.249Z,7.32
2022-09-26T07:14:04.135Z,7.13
2022-09-26T07:19:05.649Z,8.65
2022-09-26T07:24:08.659Z,7.25
2022-09-26T07:29:10.450Z,11.80
2022-09-26T07:34:18.170Z,10.20
2022-09-26T07:39:20.138Z,9.48
2022-09-26T07:50:01.706Z,10.82
2022-09-26T07:55:03.905Z,8.55
2022-09-26T08:00:12.814Z,11.30
2022-09-26T08:05:20.123Z,10.93
2022-09-26T08:10:24.244Z,9.65
2022-09-26T08:15:25.713Z,7.88
2022-09-26T08:20:32.043Z,9.73
2022-09-26T08:25:33.953Z,8.67
2022-09-26T08:30:35.747Z,8.38
2022-09-26T08:35:38.801Z,7.05
2022-09-26T08:40:49.613Z,8.63
2022-09-26T08:46:41.802Z,10.45
2022-09-26T08:51:52.160Z,11.60
2022-09-26T08:57:00.129Z,9.13
2022-09-26T09:02:10.808Z,8.70
2022-09-26T09:07:22.019Z,11.43
2022-09-26T09:12:45.707Z,15.05
2022-09-26T09:18:02.253Z,8.88
2022-09-26T09:23:22.683Z,7.13
2022-09-26T09:28:33.242Z,6.57
2022-09-26T09:33:47.798Z,9.18
2022-09-26T09:38:51.049Z,9.70
2022-09-26T09:43:59.966Z,6.88
2022-09-26T09:49:10.350Z,6.72
2022-09-26T09:54:28.517Z,10.00
2022-09-26T09:59:54.161Z,8.63
2022-09-26T10:05:35.045Z,9.68
2022-09-26T10:11:12.833Z,8.98
2022-09-26T10:16:15.351Z,5.97
2022-09-26T10:21:18.958Z,5.35
2022-09-26T10:26:35.000Z,8.02
2022-09-26T10:31:42.941Z,8.10
2022-09-26T10:36:44.779Z,6.07
2022-09-26T10:41:47.493Z,7.88
2022-09-26T10:46:52.546Z,5.63
2022-09-26T10:52:01.745Z,4.53
2022-09-26T10:57:04.869Z,5.35
2022-09-26T11:02:18.116Z,7.60
2022-09-26T11:07:31.007Z,5.20
2022-09-26T11:12:39.989Z,3.53
2022-09-26T11:17:47.387Z,5.53
2022-09-26T11:23:07.911Z,5.13
2022-09-26T11:28:17.536Z,5.28
2022-09-26T11:33:19.540Z,2.00
2022-09-26T11:38:27.106Z,3.28
2022-09-26T11:49:39.010Z,4.97
2022-09-26T11:55:31.244Z,6.03
2022-09-26T12:00:57.959Z,4.32
2022-09-26T12:06:33.607Z,8.50
2022-09-26T12:11:56.076Z,6.47
2022-09-26T12:17:14.992Z,7.22
2022-09-26T12:22:36.174Z,10.73
2022-09-26T12:28:20.379Z,8.40
2022-09-26T12:33:55.549Z,5.53
2022-09-26T12:39:35.867Z,8.70
2022-09-26T12:44:59.355Z,9.98
2022-09-26T12:50:06.784Z,7.60
2022-09-26T13:00:23.280Z,14.23
2022-09-26T13:05:51.338Z,8.98
2022-09-26T13:16:16.198Z,14.20
2022-09-26T13:21:24.750Z,11.98
2022-09-26T13:26:31.234Z,18.48
2022-09-26T13:31:41.318Z,14.27
2022-09-26T13:36:44.384Z,18.40
2022-09-26T13:41:55.079Z,17.17
2022-09-26T13:47:27.327Z,20.77
2022-09-26T13:52:34.619Z,16.15
2022-09-26T13:57:47.995Z,12.50
2022-09-26T14:03:13.689Z,14.73
2022-09-26T14:08:42.921Z,11.13
2022-09-26T14:13:48.696Z,18.45
2022-09-26T14:19:09.236Z,16.80
2022-09-26T14:24:30.645Z,14.65
2022-09-26T14:29:32.831Z,16.60
2022-09-26T14:34:35.427Z,12.32
2022-09-26T14:39:42.565Z,17.95
2022-09-26T14:45:06.535Z,12.43
2022-09-26T14:50:17.942Z,14.80
2022-09-26T14:55:20.196Z,17.50
2022-09-26T15:00:40.436Z,18.30
2022-09-26T15:05:43.717Z,17.00
2022-09-26T15:10:45.514Z,16.77
2022-09-26T15:16:17.899Z,13.02
2022-09-26T15:21:53.458Z,12.80
2022-09-26T15:26:58.352Z,12.23
2022-09-26T15:32:00.187Z,14.20
2022-09-26T15:37:14.599Z,17.38
2022-09-26T15:42:48.450Z,21.05
2022-09-26T15:47:49.975Z,17.95
2022-09-26T15:52:57.229Z,21.63
2022-09-26T15:58:01.883Z,18.90
2022-09-26T16:03:47.540Z,21.95
2022-09-26T16:09:00.746Z,23.00
2022-09-26T16:14:02.456Z,23.73
2022-09-26T16:19:04.917Z,24.25
2022-09-26T16:24:34.084Z,21.95
2022-09-26T16:29:36.023Z,20.17
2022-09-26T16:34:37.542Z,20.85
2022-09-26T16:39:39.146Z,22.67
2022-09-26T16:44:41.992Z,24.50
2022-09-26T16:49:48.274Z,20.05
2022-09-26T16:54:51.383Z,19.98
2022-09-26T16:59:53.411Z,20.63
2022-09-26T17:04:58.326Z,22.00
2022-09-26T17:09:59.779Z,16.95
2022-09-26T17:15:01.277Z,18.30
2022-09-26T17:20:03.301Z,14.52
2022-09-26T17:25:05.205Z,10.68
2022-09-26T17:30:18.797Z,19.30
2022-09-26T17:35:26.502Z,16.33
2022-09-26T17:40:32.828Z,16.05
2022-09-26T17:45:40.681Z,18.92
2022-09-26T17:50:42.863Z,14.63
2022-09-26T17:55:44.345Z,12.52
2022-09-26T18:00:49.768Z,15.65
2022-09-26T18:05:52.314Z,10.52
2022-09-26T18:11:00.034Z,11.95
2022-09-26T18:16:01.870Z,8.77
2022-09-26T18:21:04.037Z,13.70
2022-09-26T18:26:08.793Z,11.23
2022-09-26T18:31:11.286Z,7.82
2022-09-26T18:36:12.775Z,13.75
2022-09-26T18:41:16.878Z,10.75
2022-09-26T18:46:18.887Z,12.00
2022-09-26T18:51:20.553Z,8.80
2022-09-26T18:56:40.976Z,13.88
2022-09-26T19:01:43.441Z,13.05
2022-09-26T19:06:49.304Z,12.88
2022-09-26T19:11:50.786Z,15.00
2022-09-26T19:16:52.266Z,12.13
2022-09-26T19:21:58.365Z,16.50
2022-09-26T19:27:06.756Z,12.60
2022-09-26T19:32:23.448Z,12.80
2022-09-26T19:37:24.978Z,11.50
2022-09-26T19:42:26.880Z,12.52
2022-09-26T19:47:32.118Z,14.27
2022-09-26T19:52:33.596Z,12.30
2022-09-26T19:57:35.086Z,12.82
2022-09-26T20:02:36.817Z,10.55
2022-09-26T20:07:38.315Z,9.35
2022-09-26T20:12:39.853Z,9.55
2022-09-26T20:17:44.540Z,5.97
2022-09-26T20:22:46.517Z,9.05
2022-09-26T20:27:47.986Z,8.93
2022-09-26T20:32:49.444Z,11.20
2022-09-26T20:37:52.250Z,6.68
2022-09-26T20:43:03.901Z,8.75
2022-09-26T20:48:08.607Z,9.88
2022-09-26T20:53:16.981Z,14.35
2022-09-26T20:58:18.730Z,5.85
2022-09-26T21:03:25.119Z,9.43
2022-09-26T21:08:28.581Z,13.60
2022-09-26T21:13:30.120Z,25.05
2022-09-26T21:18:31.820Z,12.05
2022-09-26T21:23:40.087Z,7.45
2022-09-26T21:28:41.551Z,11.20
2022-09-26T21:33:43.017Z,15.52
2022-09-26T21:38:44.537Z,14.85
2022-09-26T21:43:52.738Z,11.35
2022-09-26T21:48:55.516Z,13.25
2022-09-26T21:54:03.993Z,8.30
2022-09-26T21:59:06.893Z,3.30
2022-09-26T22:04:08.759Z,9.60
2022-09-26T22:09:10.351Z,9.52
2022-09-26T22:14:12.044Z,8.77
2022-09-26T22:19:14.871Z,7.22
2022-09-26T22:24:16.782Z,6.80
2022-09-26T22:29:18.224Z,9.13
2022-09-26T22:34:23.085Z,5.50
2022-09-26T22:39:24.558Z,7.43
2022-09-26T22:44:26.005Z,6.07
2022-09-26T22:49:27.551Z,2.85
2022-09-26T22:54:29.029Z,9.15
2022-09-26T22:59:30.481Z,6.28
2022-09-26T23:04:47.062Z,8.65
2022-09-26T23:09:48.591Z,4.65
2022-09-26T23:14:50.096Z,9.13
2022-09-26T23:19:52.268Z,11.55
2022-09-26T23:24:53.749Z,10.15
2022-09-26T23:29:55.226Z,10.95
2022-09-26T23:34:56.704Z,9.32
2022-09-26T23:39:58.165Z,8.10
2022-09-26T23:44:59.930Z,9.63
2022-09-26T23:50:01.434Z,10.93
2022-09-26T23:55:02.992Z,7.55
